createdAt,value
2023-04-11T00:01:52.931Z,98153.78
2023-04-11T00:04:21.068Z,98153.72
2023-04-11T00:06:48.862Z,98146.16
2023-04-11T00:09:20.081Z,98143.47
2023-04-11T00:11:48.130Z,98142.25
2023-04-11T00:14:15.743Z,98136.84
2023-04-11T00:16:43.199Z,98130.16
2023-04-11T00:19:10.859Z,98120.94
2023-04-11T00:21:41.257Z,98126.72
2023-04-11T00:24:08.973Z,98116.97
2023-04-11T00:26:36.500Z,98118.53
2023-04-11T00:29:04.100Z,98113.09
2023-04-11T00:31:31.453Z,98114.38
2023-04-11T00:33:59.180Z,98110.25
2023-04-11T00:36:27.133Z,98111.66
2023-04-11T00:38:55.435Z,98108.63
2023-04-11T00:41:22.911Z,98106.03
2023-04-11T00:43:50.835Z,98102.06
2023-04-11T00:46:18.857Z,98105.09
2023-04-11T00:48:47.152Z,98104.16
2023-04-11T00:51:16.202Z,98104.34
2023-04-11T00:53:45.841Z,98102.59
2023-04-11T00:56:13.586Z,98094.69
2023-04-11T00:58:42.228Z,98086.69
2023-04-11T01:01:09.698Z,98092.34
2023-04-11T01:03:41.516Z,98087.53
2023-04-11T01:06:13.024Z,98081.59
2023-04-11T01:08:43.444Z,98075.44
2023-04-11T01:11:15.931Z,98076.28
2023-04-11T01:13:43.815Z,98075.88
2023-04-11T01:16:11.501Z,98067.03
2023-04-11T01:18:39.209Z,98071.16
2023-04-11T01:21:07.193Z,98066.78
2023-04-11T01:23:34.850Z,98077.19
2023-04-11T01:26:02.179Z,98070.50
2023-04-11T01:28:29.737Z,98066.59
2023-04-11T01:30:57.902Z,98069.66
2023-04-11T01:33:26.077Z,98067.97
2023-04-11T01:35:53.489Z,98073.38
2023-04-11T01:38:21.605Z,98064.16
2023-04-11T01:40:49.113Z,98057.00
2023-04-11T01:43:16.869Z,98066.41
2023-04-11T01:45:44.377Z,98053.41
2023-04-11T01:48:12.205Z,98055.06
2023-04-11T01:50:39.542Z,98051.72
2023-04-11T01:53:08.156Z,98046.59
2023-04-11T01:55:35.386Z,98049.13
2023-04-11T01:58:03.004Z,98038.59
2023-04-11T02:00:30.401Z,98044.75
2023-04-11T02:02:58.110Z,98052.25
2023-04-11T02:05:25.877Z,98044.19
2023-04-11T02:07:53.478Z,98045.00
2023-04-11T02:10:20.691Z,98038.56
2023-04-11T02:12:48.304Z,98032.72
2023-04-11T02:15:15.707Z,98026.97
2023-04-11T02:17:45.630Z,98017.47
2023-04-11T02:20:14.580Z,98012.28
2023-04-11T02:22:42.276Z,98013.03
2023-04-11T02:25:09.974Z,98009.41
2023-04-11T02:27:37.577Z,98009.84
2023-04-11T02:30:06.313Z,98001.63
2023-04-11T02:32:38.382Z,97993.81
2023-04-11T02:35:07.897Z,97993.47
2023-04-11T02:37:36.029Z,97995.91
2023-04-11T02:40:04.578Z,97991.28
2023-04-11T02:42:32.235Z,97990.63
2023-04-11T02:44:59.764Z,97988.31
2023-04-11T02:47:27.462Z,97981.50
2023-04-11T02:49:54.712Z,97974.75
2023-04-11T02:52:22.441Z,97977.09
2023-04-11T02:54:49.709Z,97967.16
2023-04-11T02:57:17.904Z,97962.34
2023-04-11T02:59:45.648Z,97964.75
2023-04-11T03:02:13.249Z,97964.44
2023-04-11T03:04:40.801Z,97961.66
2023-04-11T03:07:08.397Z,97965.03
2023-04-11T03:09:35.633Z,97964.91
2023-04-11T03:12:03.384Z,97971.69
2023-04-11T03:14:32.025Z,97973.78
2023-04-11T03:16:59.593Z,97965.84
2023-04-11T03:19:26.859Z,97974.19
2023-04-11T03:21:54.525Z,97965.53
2023-04-11T03:24:22.510Z,97963.03
2023-04-11T03:26:50.295Z,97968.97
2023-04-11T03:29:17.547Z,97963.78
2023-04-11T03:31:45.156Z,97962.22
2023-04-11T03:34:12.539Z,97952.75
2023-04-11T03:36:40.043Z,97954.31
2023-04-11T03:39:07.411Z,97953.28
2023-04-11T03:41:36.125Z,97949.31
2023-04-11T03:44:03.448Z,97948.75
2023-04-11T03:46:31.422Z,97942.06
2023-04-11T03:48:58.860Z,97948.75
2023-04-11T03:51:26.927Z,97940.56
2023-04-11T03:53:54.221Z,97938.81
2023-04-11T03:56:22.146Z,97942.06
2023-04-11T03:58:49.546Z,97935.38
2023-04-11T04:01:17.111Z,97925.91
2023-04-11T04:03:44.622Z,97921.09
2023-04-11T04:06:12.449Z,97915.13
2023-04-11T04:08:39.783Z,97914.31
2023-04-11T04:11:07.417Z,97903.75
2023-04-11T04:13:34.761Z,97899.66
2023-04-11T04:16:03.669Z,97893.50
2023-04-11T04:18:31.296Z,97898.81
2023-04-11T04:20:58.855Z,97906.81
2023-04-11T04:23:26.975Z,97897.41
2023-04-11T04:25:58.104Z,97903.63
2023-04-11T04:28:26.213Z,97896.50
2023-04-11T04:30:54.500Z,97887.31
2023-04-11T04:33:22.107Z,97891.00
2023-04-11T04:35:58.230Z,97890.25
2023-04-11T04:38:26.160Z,97891.66
2023-04-11T04:40:54.925Z,97884.13
2023-04-11T04:43:24.621Z,97876.34
2023-04-11T04:45:52.295Z,97883.28
2023-04-11T04:48:20.149Z,97872.91
2023-04-11T04:50:47.750Z,97882.84
2023-04-11T04:53:15.050Z,97875.16
2023-04-11T04:55:42.672Z,97879.59
2023-04-11T04:58:09.921Z,97866.03
2023-04-11T05:00:37.711Z,97864.47
2023-04-11T05:03:06.110Z,97863.63
2023-04-11T05:05:34.087Z,97860.63
2023-04-11T05:08:01.440Z,97855.63
2023-04-11T05:10:29.122Z,97853.50
2023-04-11T05:12:56.563Z,97833.56
2023-04-11T05:15:24.366Z,97832.31
2023-04-11T05:17:51.703Z,97827.72
2023-04-11T05:20:20.087Z,97832.72
2023-04-11T05:22:49.398Z,97829.22
2023-04-11T05:25:18.082Z,97822.41
2023-04-11T05:27:45.483Z,97807.53
2023-04-11T05:30:13.759Z,97808.69
2023-04-11T05:32:41.060Z,97814.28
2023-04-11T05:35:09.249Z,97806.38
2023-04-11T05:37:37.326Z,97805.84
2023-04-11T05:40:07.964Z,97802.91
2023-04-11T05:42:35.264Z,97800.03
2023-04-11T05:45:02.866Z,97793.97
2023-04-11T05:47:30.195Z,97792.97
2023-04-11T05:49:57.823Z,97796.59
2023-04-11T05:52:25.307Z,97791.66
2023-04-11T05:54:52.996Z,97786.34
2023-04-11T05:57:21.117Z,97790.91
2023-04-11T05:59:53.097Z,97784.44
2023-04-11T06:02:20.620Z,97787.34
2023-04-11T06:04:48.558Z,97788.34
2023-04-11T06:07:16.279Z,97784.41
2023-04-11T06:09:44.393Z,97781.94
2023-04-11T06:12:11.796Z,97783.34
2023-04-11T06:14:40.681Z,97779.47
2023-04-11T06:17:08.271Z,97774.22
2023-04-11T06:19:35.914Z,97769.44
2023-04-11T06:22:03.212Z,97765.41
2023-04-11T06:24:39.330Z,97764.53
2023-04-11T06:27:10.218Z,97760.69
2023-04-11T06:29:39.017Z,97758.19
2023-04-11T06:32:07.894Z,97765.31
2023-04-11T06:34:35.712Z,97761.59
2023-04-11T06:37:03.056Z,97763.41
2023-04-11T06:39:30.944Z,97751.22
2023-04-11T06:41:58.265Z,97750.13
2023-04-11T06:44:26.487Z,97751.72
2023-04-11T06:46:54.630Z,97751.31
2023-04-11T06:49:23.472Z,97745.53
2023-04-11T06:51:51.123Z,97734.38
2023-04-11T06:54:19.260Z,97732.69
2023-04-11T06:56:47.528Z,97728.56
2023-04-11T06:59:15.186Z,97718.72
2023-04-11T07:01:42.600Z,97717.22
2023-04-11T07:04:10.344Z,97718.53
2023-04-11T07:06:38.253Z,97738.19
2023-04-11T07:09:06.566Z,97738.13
2023-04-11T07:11:34.047Z,97735.81
2023-04-11T07:14:02.518Z,97731.44
2023-04-11T07:16:29.901Z,97738.56
2023-04-11T07:18:59.245Z,97737.69
2023-04-11T07:21:30.347Z,97750.09
2023-04-11T07:23:58.216Z,97751.38
2023-04-11T07:26:27.367Z,97755.56
2023-04-11T07:28:54.909Z,97751.22
2023-04-11T07:31:22.867Z,97743.22
2023-04-11T07:33:51.400Z,97732.13
2023-04-11T07:36:18.718Z,97723.19
2023-04-11T07:38:46.979Z,97698.38
2023-04-11T07:41:14.351Z,97690.34
2023-04-11T07:43:41.904Z,97685.63
2023-04-11T07:46:09.291Z,97675.88
2023-04-11T07:48:37.144Z,97667.03
2023-04-11T07:51:04.928Z,97664.56
2023-04-11T07:53:34.082Z,97669.72
2023-04-11T07:56:01.639Z,97682.28
2023-04-11T07:58:30.295Z,97680.81
2023-04-11T08:00:59.116Z,97692.28
2023-04-11T08:03:27.212Z,97682.56
2023-04-11T08:05:54.737Z,97674.59
2023-04-11T08:08:22.454Z,97685.91
2023-04-11T08:10:51.911Z,97682.72
2023-04-11T08:13:19.846Z,97686.56
2023-04-11T08:15:47.178Z,97676.91
2023-04-11T08:18:16.610Z,97673.44
2023-04-11T08:20:44.026Z,97677.25
2023-04-11T08:23:11.723Z,97661.81
2023-04-11T08:25:39.484Z,97646.94
2023-04-11T08:28:09.968Z,97645.94
2023-04-11T08:30:37.319Z,97641.88
2023-04-11T08:33:04.999Z,97641.06
2023-04-11T08:35:32.372Z,97645.06
2023-04-11T08:37:59.915Z,97641.47
2023-04-11T08:40:28.729Z,97641.88
2023-04-11T08:43:02.804Z,97649.88
2023-04-11T08:45:30.328Z,97644.88
2023-04-11T08:47:57.942Z,97643.25
2023-04-11T08:50:26.392Z,97644.50
2023-04-11T08:52:54.983Z,97645.09
2023-04-11T08:55:22.405Z,97633.84
2023-04-11T08:57:49.997Z,97629.78
2023-04-11T09:00:23.562Z,97618.44
2023-04-11T09:03:03.996Z,97615.69
2023-04-11T09:05:39.642Z,97610.50
2023-04-11T09:08:12.819Z,97613.03
2023-04-11T09:10:45.488Z,97599.03
2023-04-11T09:13:28.749Z,97605.59
2023-04-11T09:16:05.847Z,97602.50
2023-04-11T09:18:42.400Z,97595.50
2023-04-11T09:21:19.617Z,97587.78
2023-04-11T09:23:47.197Z,97584.63
2023-04-11T09:26:30.051Z,97585.16
2023-04-11T09:28:57.943Z,97584.16
2023-04-11T09:31:45.576Z,97581.13
2023-04-11T09:34:13.586Z,97579.50
2023-04-11T09:36:41.211Z,97579.91
2023-04-11T09:39:21.151Z,97569.91
2023-04-11T09:41:48.743Z,97557.13
2023-04-11T09:44:16.417Z,97556.78
2023-04-11T09:46:59.854Z,97554.41
2023-04-11T09:49:28.034Z,97548.91
2023-04-11T09:51:59.497Z,97540.16
2023-04-11T09:54:28.436Z,97534.28
2023-04-11T09:56:57.349Z,97534.63
2023-04-11T09:59:27.575Z,97527.59
2023-04-11T10:01:56.828Z,97527.63
2023-04-11T10:04:28.221Z,97522.59
2023-04-11T10:07:09.165Z,97518.25
2023-04-11T10:09:43.093Z,97516.44
2023-04-11T10:12:10.723Z,97521.38
2023-04-11T10:14:38.175Z,97519.25
2023-04-11T10:17:15.743Z,97515.00
2023-04-11T10:19:45.134Z,97508.41
2023-04-11T10:22:59.412Z,97502.53
2023-04-11T10:25:27.826Z,97502.00
2023-04-11T10:28:01.575Z,97500.41
2023-04-11T10:31:14.082Z,97496.69
2023-04-11T10:34:19.305Z,97495.88
2023-04-11T10:37:07.802Z,97486.19
2023-04-11T10:39:53.986Z,97489.41
2023-04-11T10:42:43.536Z,97477.91
2023-04-11T10:45:21.818Z,97483.09
2023-04-11T10:47:52.365Z,97467.63
2023-04-11T10:50:37.066Z,97481.28
2023-04-11T10:53:06.874Z,97469.97
2023-04-11T10:55:51.133Z,97461.47
2023-04-11T10:58:22.214Z,97454.84
2023-04-11T11:00:55.806Z,97459.50
2023-04-11T11:03:34.365Z,97451.66
2023-04-11T11:06:06.344Z,97438.41
2023-04-11T11:08:46.672Z,97451.00
2023-04-11T11:11:19.562Z,97451.28
2023-04-11T11:13:56.205Z,97451.97
2023-04-11T11:16:26.199Z,97450.47
2023-04-11T11:18:59.223Z,97447.25
2023-04-11T11:21:28.891Z,97435.59
2023-04-11T11:24:02.701Z,97439.53
2023-04-11T11:26:44.092Z,97442.56
2023-04-11T11:29:12.349Z,97431.13
2023-04-11T11:31:47.841Z,97444.53
2023-04-11T11:34:35.235Z,97428.81
2023-04-11T11:37:06.786Z,97431.31
2023-04-11T11:39:35.615Z,97431.00
2023-04-11T11:42:03.608Z,97447.81
2023-04-11T11:44:32.841Z,97446.41
2023-04-11T11:47:17.152Z,97441.81
2023-04-11T11:49:56.202Z,97450.28
2023-04-11T11:52:37.713Z,97449.34
2023-04-11T11:55:11.405Z,97449.03
2023-04-11T11:57:46.034Z,97451.34
2023-04-11T12:00:15.098Z,97440.22
2023-04-11T12:02:44.578Z,97437.91
2023-04-11T12:05:13.028Z,97462.16
2023-04-11T12:07:40.727Z,97441.34
2023-04-11T12:10:14.984Z,97432.56
2023-04-11T12:12:53.315Z,97441.47
2023-04-11T12:15:24.585Z,97430.13
2023-04-11T12:17:54.015Z,97426.06
2023-04-11T12:20:27.328Z,97425.34
2023-04-11T12:22:55.427Z,97426.78
2023-04-11T12:25:25.756Z,97408.81
2023-04-11T12:27:53.115Z,97413.78
2023-04-11T12:30:20.898Z,97403.69
2023-04-11T12:32:48.268Z,97399.91
2023-04-11T12:35:15.845Z,97399.72
2023-04-11T12:37:44.532Z,97398.22
2023-04-11T12:40:13.077Z,97392.03
2023-04-11T12:42:53.073Z,97388.66
2023-04-11T12:45:23.521Z,97392.09
2023-04-11T12:47:51.129Z,97386.75
2023-04-11T12:50:18.899Z,97386.97
2023-04-11T12:52:46.362Z,97360.16
2023-04-11T12:55:13.994Z,97346.56
2023-04-11T12:57:42.497Z,97355.72
2023-04-11T13:00:11.713Z,97357.63
2023-04-11T13:02:44.570Z,97357.00
2023-04-11T13:05:17.029Z,97350.88
2023-04-11T13:07:46.129Z,97345.47
2023-04-11T13:10:16.376Z,97340.84
2023-04-11T13:12:45.581Z,97340.53
2023-04-11T13:15:17.097Z,97355.47
2023-04-11T13:17:44.928Z,97344.66
2023-04-11T13:20:13.506Z,97334.31
2023-04-11T13:22:42.405Z,97328.38
2023-04-11T13:25:12.294Z,97324.91
2023-04-11T13:27:40.281Z,97323.78
2023-04-11T13:30:10.008Z,97322.97
2023-04-11T13:32:37.461Z,97320.88
2023-04-11T13:35:06.313Z,97318.69
2023-04-11T13:37:33.822Z,97313.19
2023-04-11T13:40:01.562Z,97316.69
2023-04-11T13:42:28.909Z,97312.94
2023-04-11T13:44:56.576Z,97306.09
2023-04-11T13:47:24.781Z,97312.94
2023-04-11T13:49:52.602Z,97302.13
2023-04-11T13:52:22.293Z,97304.22
2023-04-11T13:54:50.338Z,97312.66
2023-04-11T13:57:17.648Z,97298.59
2023-04-11T13:59:45.404Z,97296.91
2023-04-11T14:02:12.823Z,97298.16
2023-04-11T14:04:40.682Z,97292.63
2023-04-11T14:07:08.162Z,97304.28
2023-04-11T14:09:35.859Z,97296.47
2023-04-11T14:12:04.268Z,97300.25
2023-04-11T14:14:32.552Z,97293.97
2023-04-11T14:17:00.169Z,97308.53
2023-04-11T14:19:27.853Z,97294.53
2023-04-11T14:21:55.211Z,97287.44
2023-04-11T14:24:22.964Z,97291.81
2023-04-11T14:26:50.447Z,97301.88
2023-04-11T14:29:19.871Z,97297.16
2023-04-11T14:31:48.466Z,97303.84
2023-04-11T14:34:18.632Z,97298.31
2023-04-11T14:36:45.967Z,97298.56
2023-04-11T14:39:13.671Z,97300.56
2023-04-11T14:41:41.282Z,97299.94
2023-04-11T14:44:08.971Z,97315.84
2023-04-11T14:46:36.834Z,97303.88
2023-04-11T14:49:04.775Z,97299.44
2023-04-11T14:51:32.602Z,97318.78
2023-04-11T14:54:00.824Z,97311.50
2023-04-11T14:56:28.341Z,97319.88
2023-04-11T14:58:55.853Z,97317.16
2023-04-11T15:01:23.316Z,97308.47
2023-04-11T15:03:51.319Z,97318.84
2023-04-11T15:06:18.743Z,97332.84
2023-04-11T15:08:46.480Z,97327.50
2023-04-11T15:11:13.986Z,97338.81
2023-04-11T15:13:41.538Z,97350.16
2023-04-11T15:16:09.059Z,97333.00
2023-04-11T15:18:36.771Z,97357.56
2023-04-11T15:21:04.592Z,97330.63
2023-04-11T15:23:32.772Z,97348.69
2023-04-11T15:26:03.155Z,97337.88
2023-04-11T15:28:36.822Z,97352.38
2023-04-11T15:31:07.432Z,97358.78
2023-04-11T15:33:35.514Z,97358.91
2023-04-11T15:36:03.257Z,97350.69
2023-04-11T15:38:30.882Z,97356.13
2023-04-11T15:41:00.185Z,97365.47
2023-04-11T15:43:27.923Z,97354.16
2023-04-11T15:45:55.365Z,97361.34
2023-04-11T15:48:23.017Z,97358.91
2023-04-11T15:50:51.081Z,97368.75
2023-04-11T15:53:18.684Z,97362.84
2023-04-11T15:55:47.785Z,97367.91
2023-04-11T15:58:15.634Z,97357.13
2023-04-11T16:00:43.867Z,97362.41
2023-04-11T16:03:11.684Z,97363.13
2023-04-11T16:05:41.331Z,97361.88
2023-04-11T16:08:09.088Z,97360.81
2023-04-11T16:10:36.631Z,97357.75
2023-04-11T16:13:04.405Z,97358.13
2023-04-11T16:15:32.454Z,97365.06
2023-04-11T16:18:00.208Z,97357.06
2023-04-11T16:20:28.010Z,97351.25
2023-04-11T16:22:56.134Z,97349.44
2023-04-11T16:25:23.708Z,97351.53
2023-04-11T16:27:51.646Z,97350.69
2023-04-11T16:30:19.732Z,97354.97
2023-04-11T16:32:48.165Z,97354.81
2023-04-11T16:35:15.720Z,97347.41
2023-04-11T16:37:43.519Z,97344.78
2023-04-11T16:40:11.869Z,97344.47
2023-04-11T16:42:40.634Z,97344.03
2023-04-11T16:45:12.447Z,97340.19
2023-04-11T16:47:40.334Z,97342.22
2023-04-11T16:50:08.558Z,97337.13
2023-04-11T16:52:36.419Z,97348.03
2023-04-11T16:55:04.196Z,97338.66
2023-04-11T16:57:33.525Z,97361.94
2023-04-11T17:00:06.469Z,97350.03
2023-04-11T17:02:34.254Z,97344.75
2023-04-11T17:05:02.021Z,97365.19
2023-04-11T17:07:29.913Z,97362.41
2023-04-11T17:09:57.399Z,97374.31
2023-04-11T17:12:25.049Z,97384.19
2023-04-11T17:14:52.811Z,97393.06
2023-04-11T17:17:21.060Z,97385.41
2023-04-11T17:19:48.553Z,97381.41
2023-04-11T17:22:16.429Z,97386.38
2023-04-11T17:24:43.934Z,97392.56
2023-04-11T17:27:11.571Z,97388.28
2023-04-11T17:29:39.078Z,97384.06
2023-04-11T17:32:09.111Z,97391.00
2023-04-11T17:34:36.773Z,97393.25
2023-04-11T17:37:04.435Z,97389.59
2023-04-11T17:39:32.242Z,97396.53
2023-04-11T17:41:59.970Z,97402.66
2023-04-11T17:44:27.425Z,97403.69
2023-04-11T17:46:55.162Z,97413.28
2023-04-11T17:49:22.687Z,97417.19
2023-04-11T17:51:59.086Z,97413.78
2023-04-11T17:55:42.311Z,97419.94
2023-04-11T17:58:27.856Z,97419.94
2023-04-11T18:00:57.056Z,97421.59
2023-04-11T18:03:25.830Z,97425.28
2023-04-11T18:05:54.724Z,97419.09
2023-04-11T18:08:35.447Z,97433.81
2023-04-11T18:11:11.157Z,97432.41
2023-04-11T18:13:38.553Z,97431.44
2023-04-11T18:16:06.497Z,97436.91
2023-04-11T18:18:34.100Z,97432.44
2023-04-11T18:21:07.625Z,97438.81
2023-04-11T18:23:35.962Z,97440.72
2023-04-11T18:26:03.585Z,97444.97
2023-04-11T18:28:31.110Z,97445.56
2023-04-11T18:30:58.841Z,97452.59
2023-04-11T18:33:26.454Z,97449.84
2023-04-11T18:35:54.281Z,97459.72
2023-04-11T18:38:22.388Z,97456.63
2023-04-11T18:40:54.552Z,97466.22
2023-04-11T18:43:22.768Z,97458.50
2023-04-11T18:45:50.746Z,97471.09
2023-04-11T18:48:18.348Z,97475.78
2023-04-11T18:50:48.788Z,97488.34
2023-04-11T18:53:16.583Z,97491.53
2023-04-11T18:55:44.547Z,97487.81
2023-04-11T18:58:15.287Z,97495.31
2023-04-11T19:00:44.476Z,97496.72
2023-04-11T19:03:16.470Z,97490.13
2023-04-11T19:05:45.519Z,97497.09
2023-04-11T19:08:13.851Z,97497.22
2023-04-11T19:10:41.772Z,97496.38
2023-04-11T19:13:09.514Z,97503.47
2023-04-11T19:15:40.565Z,97496.34
2023-04-11T19:18:09.106Z,97502.50
2023-04-11T19:20:39.047Z,97498.00
2023-04-11T19:23:06.687Z,97505.38
2023-04-11T19:25:34.864Z,97497.78
2023-04-11T19:28:03.142Z,97489.13
2023-04-11T19:30:31.251Z,97494.09
2023-04-11T19:32:58.907Z,97496.56
2023-04-11T19:35:27.396Z,97495.38
2023-04-11T19:37:54.816Z,97491.25
2023-04-11T19:40:23.535Z,97490.91
2023-04-11T19:42:51.723Z,97488.06
2023-04-11T19:45:19.628Z,97481.31
2023-04-11T19:47:46.990Z,97486.66
2023-04-11T19:50:14.914Z,97491.63
2023-04-11T19:52:43.347Z,97489.66
2023-04-11T19:55:12.699Z,97495.91
2023-04-11T19:57:41.259Z,97500.41
2023-04-11T20:00:14.423Z,97503.47
2023-04-11T20:02:46.378Z,97497.56
2023-04-11T20:05:20.022Z,97492.59
2023-04-11T20:07:48.239Z,97506.84
2023-04-11T20:10:16.856Z,97507.28
2023-04-11T20:12:44.563Z,97493.78
2023-04-11T20:15:12.586Z,97505.75
2023-04-11T20:17:40.060Z,97497.31
2023-04-11T20:20:09.147Z,97494.22
2023-04-11T20:22:39.350Z,97489.81
2023-04-11T20:25:08.257Z,97491.25
2023-04-11T20:27:36.424Z,97494.88
2023-04-11T20:30:12.305Z,97491.34
2023-04-11T20:32:41.202Z,97504.56
2023-04-11T20:35:12.203Z,97505.25
2023-04-11T20:37:41.461Z,97502.09
2023-04-11T20:40:11.106Z,97504.09
2023-04-11T20:42:40.177Z,97499.06
2023-04-11T20:45:11.347Z,97497.53
2023-04-11T20:47:40.495Z,97495.41
2023-04-11T20:50:10.683Z,97507.09
2023-04-11T20:52:38.792Z,97507.09
2023-04-11T20:55:07.557Z,97504.38
2023-04-11T20:57:35.006Z,97500.44
2023-04-11T21:00:23.354Z,97507.25
2023-04-11T21:02:51.867Z,97502.56
2023-04-11T21:05:25.077Z,97510.53
2023-04-11T21:07:55.687Z,97500.38
2023-04-11T21:10:23.542Z,97500.44
2023-04-11T21:12:54.429Z,97504.81
2023-04-11T21:15:22.544Z,97505.13
2023-04-11T21:17:50.633Z,97503.06
2023-04-11T21:20:18.614Z,97502.16
2023-04-11T21:22:48.263Z,97511.41
2023-04-11T21:25:16.550Z,97503.91
2023-04-11T21:27:43.846Z,97512.25
2023-04-11T21:30:13.944Z,97511.53
2023-04-11T21:32:41.594Z,97510.88
2023-04-11T21:35:11.609Z,97505.78
2023-04-11T21:37:39.211Z,97509.88
2023-04-11T21:40:07.681Z,97508.16
2023-04-11T21:42:35.105Z,97514.13
2023-04-11T21:45:02.720Z,97518.94
2023-04-11T21:47:29.996Z,97516.56
2023-04-11T21:49:57.605Z,97507.69
2023-04-11T21:52:25.049Z,97512.56
2023-04-11T21:54:52.613Z,97517.78
2023-04-11T21:57:20.054Z,97518.50
2023-04-11T21:59:47.616Z,97516.31
2023-04-11T22:02:15.205Z,97513.91
2023-04-11T22:05:00.911Z,97515.44
2023-04-11T22:07:38.468Z,97515.03
2023-04-11T22:10:10.202Z,97516.69
2023-04-11T22:12:38.241Z,97520.00
2023-04-11T22:15:06.943Z,97513.78
2023-04-11T22:17:37.249Z,97516.56
2023-04-11T22:20:06.933Z,97515.13
2023-04-11T22:22:35.415Z,97502.16
2023-04-11T22:25:03.786Z,97506.22
2023-04-11T22:27:34.683Z,97511.94
2023-04-11T22:30:02.644Z,97520.38
2023-04-11T22:32:30.651Z,97511.44
2023-04-11T22:34:59.739Z,97519.44
2023-04-11T22:37:27.295Z,97517.78
2023-04-11T22:39:55.194Z,97525.44
2023-04-11T22:42:22.433Z,97521.19
2023-04-11T22:44:49.986Z,97521.50
2023-04-11T22:47:21.791Z,97514.19
2023-04-11T22:49:50.536Z,97524.63
2023-04-11T22:52:24.294Z,97520.03
2023-04-11T22:54:52.232Z,97522.75
2023-04-11T22:57:19.568Z,97520.47
2023-04-11T22:59:47.375Z,97518.88
2023-04-11T23:02:14.746Z,97510.91
2023-04-11T23:04:42.516Z,97518.06
2023-04-11T23:07:10.380Z,97512.75
2023-04-11T23:09:38.156Z,97518.47
2023-04-11T23:12:05.681Z,97512.56
2023-04-11T23:14:33.287Z,97516.09
2023-04-11T23:17:00.660Z,97510.47
2023-04-11T23:19:30.223Z,97511.63
2023-04-11T23:21:57.593Z,97517.84
2023-04-11T23:24:25.201Z,97519.63
2023-04-11T23:26:52.709Z,97510.66
2023-04-11T23:29:20.245Z,97518.78
2023-04-11T23:31:47.725Z,97517.03
2023-04-11T23:34:15.428Z,97520.13
2023-04-11T23:36:43.478Z,97505.47
2023-04-11T23:39:11.181Z,97511.50
2023-04-11T23:41:38.419Z,97515.16
2023-04-11T23:44:06.057Z,97510.66
2023-04-11T23:46:33.501Z,97513.19
2023-04-11T23:49:01.116Z,97502.78
2023-04-11T23:51:28.477Z,97512.84
2023-04-11T23:53:56.289Z,97512.59
2023-04-11T23:56:23.951Z,97510.38
2023-04-11T23:58:51.484Z,97512.97
